sensor_id;sensor_type;location;lat;lon;timestamp;P1;durP1;ratioP1;P2;durP2;ratioP2
46008;SDS011;39597;51.438;7.006;2022-09-27T00:01:12;8.45;;;2.58;;
46008;SDS011;39597;51.438;7.006;2022-09-27T00:03:38;8.27;;;2.33;;
46008;SDS011;39597;51.438;7.006;2022-09-27T00:06:05;7.35;;;1.98;;
46008;SDS011;39597;51.438;7.006;2022-09-27T00:08:45;6.45;;;2.75;;
46008;SDS011;39597;51.438;7.006;2022-09-27T00:11:11;6.88;;;2.58;;
46008;SDS011;39597;51.438;7.006;2022-09-27T00:13:44;7.25;;;2.40;;
46008;SDS011;39597;51.438;7.006;2022-09-27T00:16:09;8.05;;;2.50;;
46008;SDS011;39597;51.438;7.006;2022-09-27T00:18:35;5.53;;;2.03;;
46008;SDS011;39597;51.438;7.006;2022-09-27T00:21:05;5.18;;;2.22;;
46008;SDS011;39597;51.438;7.006;2022-09-27T00:23:33;9.40;;;2.17;;
46008;SDS011;39597;51.438;7.006;2022-09-27T00:26:00;5.63;;;2.20;;
46008;SDS011;39597;51.438;7.006;2022-09-27T00:28:25;11.00;;;2.83;;
46008;SDS011;39597;51.438;7.006;2022-09-27T00:33:18;8.77;;;2.50;;
46008;SDS011;39597;51.438;7.006;2022-09-27T00:35:43;7.78;;;3.17;;
46008;SDS011;39597;51.438;7.006;2022-09-27T00:38:10;11.00;;;3.38;;
46008;SDS011;39597;51.438;7.006;2022-09-27T00:40:37;12.85;;;4.38;;
46008;SDS011;39597;51.438;7.006;2022-09-27T00:43:12;9.35;;;3.28;;
46008;SDS011;39597;51.438;7.006;2022-09-27T00:45:44;6.55;;;3.10;;
46008;SDS011;39597;51.438;7.006;2022-09-27T00:48:17;9.68;;;3.00;;
46008;SDS011;39597;51.438;7.006;2022-09-27T00:50:49;8.68;;;3.47;;
46008;SDS011;39597;51.438;7.006;2022-09-27T00:55:49;6.35;;;2.83;;
46008;SDS011;39597;51.438;7.006;2022-09-27T00:58:20;8.50;;;2.50;;
46008;SDS011;39597;51.438;7.006;2022-09-27T01:00:50;4.97;;;1.92;;
46008;SDS011;39597;51.438;7.006;2022-09-27T01:03:36;6.90;;;2.75;;
46008;SDS011;39597;51.438;7.006;2022-09-27T01:06:24;8.98;;;2.75;;
46008;SDS011;39597;51.438;7.006;2022-09-27T01:08:50;8.10;;;2.72;;
46008;SDS011;39597;51.438;7.006;2022-09-27T01:11:18;10.00;;;2.90;;
46008;SDS011;39597;51.438;7.006;2022-09-27T01:14:11;7.43;;;3.20;;
46008;SDS011;39597;51.438;7.006;2022-09-27T01:17:30;8.75;;;3.42;;
46008;SDS011;39597;51.438;7.006;2022-09-27T01:22:03;9.65;;;4.60;;
46008;SDS011;39597;51.438;7.006;2022-09-27T01:33:21;8.55;;;3.90;;
46008;SDS011;39597;51.438;7.006;2022-09-27T01:39:07;8.20;;;3.83;;
46008;SDS011;39597;51.438;7.006;2022-09-27T01:41:44;10.60;;;3.95;;
46008;SDS011;39597;51.438;7.006;2022-09-27T01:44:24;11.10;;;4.23;;
46008;SDS011;39597;51.438;7.006;2022-09-27T01:46:54;10.18;;;4.65;;
46008;SDS011;39597;51.438;7.006;2022-09-27T01:50:04;13.20;;;4.15;;
46008;SDS011;39597;51.438;7.006;2022-09-27T01:52:33;11.40;;;3.58;;
46008;SDS011;39597;51.438;7.006;2022-09-27T01:55:03;8.85;;;4.38;;
46008;SDS011;39597;51.438;7.006;2022-09-27T01:57:36;11.52;;;4.45;;
46008;SDS011;39597;51.438;7.006;2022-09-27T02:00:06;9.75;;;4.22;;
46008;SDS011;39597;51.438;7.006;2022-09-27T02:02:34;8.60;;;3.83;;
46008;SDS011;39597;51.438;7.006;2022-09-27T02:05:07;8.35;;;4.10;;
46008;SDS011;39597;51.438;7.006;2022-09-27T02:07:49;10.63;;;3.80;;
46008;SDS011;39597;51.438;7.006;2022-09-27T02:10:21;14.32;;;3.88;;
46008;SDS011;39597;51.438;7.006;2022-09-27T02:12:51;9.30;;;3.33;;
46008;SDS011;39597;51.438;7.006;2022-09-27T02:15:22;9.43;;;3.33;;
46008;SDS011;39597;51.438;7.006;2022-09-27T02:17:54;9.38;;;3.30;;
46008;SDS011;39597;51.438;7.006;2022-09-27T02:20:28;9.52;;;3.45;;
46008;SDS011;39597;51.438;7.006;2022-09-27T02:23:02;8.65;;;3.95;;
46008;SDS011;39597;51.438;7.006;2022-09-27T02:25:50;6.82;;;3.22;;
46008;SDS011;39597;51.438;7.006;2022-09-27T02:28:41;7.32;;;3.17;;
46008;SDS011;39597;51.438;7.006;2022-09-27T02:31:12;7.95;;;3.90;;
46008;SDS011;39597;51.438;7.006;2022-09-27T02:33:39;8.25;;;3.42;;
46008;SDS011;39597;51.438;7.006;2022-09-27T02:36:11;7.95;;;3.47;;
46008;SDS011;39597;51.438;7.006;2022-09-27T02:38:36;9.90;;;3.17;;
46008;SDS011;39597;51.438;7.006;2022-09-27T02:41:02;12.23;;;4.13;;
46008;SDS011;39597;51.438;7.006;2022-09-27T02:43:38;8.40;;;3.60;;
46008;SDS011;39597;51.438;7.006;2022-09-27T02:46:49;15.07;;;3.75;;
46008;SDS011;39597;51.438;7.006;2022-09-27T02:55:19;8.88;;;3.50;;
46008;SDS011;39597;51.438;7.006;2022-09-27T02:58:09;8.40;;;3.45;;
46008;SDS011;39597;51.438;7.006;2022-09-27T03:04:16;11.43;;;4.55;;
46008;SDS011;39597;51.438;7.006;2022-09-27T03:06:53;10.57;;;4.00;;
46008;SDS011;39597;51.438;7.006;2022-09-27T03:09:22;11.30;;;4.00;;
46008;SDS011;39597;51.438;7.006;2022-09-27T03:11:49;8.13;;;3.47;;
46008;SDS011;39597;51.438;7.006;2022-09-27T03:14:15;13.43;;;4.20;;
46008;SDS011;39597;51.438;7.006;2022-09-27T03:16:40;8.90;;;3.90;;
46008;SDS011;39597;51.438;7.006;2022-09-27T03:19:06;9.27;;;4.30;;
46008;SDS011;39597;51.438;7.006;2022-09-27T03:21:31;10.20;;;4.20;;
46008;SDS011;39597;51.438;7.006;2022-09-27T03:23:56;10.00;;;3.97;;
46008;SDS011;39597;51.438;7.006;2022-09-27T03:26:22;15.95;;;4.47;;
46008;SDS011;39597;51.438;7.006;2022-09-27T03:28:47;16.75;;;5.43;;
46008;SDS011;39597;51.438;7.006;2022-09-27T03:31:13;10.70;;;3.20;;
46008;SDS011;39597;51.438;7.006;2022-09-27T03:33:39;8.88;;;3.75;;
46008;SDS011;39597;51.438;7.006;2022-09-27T03:36:05;7.35;;;2.92;;
46008;SDS011;39597;51.438;7.006;2022-09-27T03:40:56;6.03;;;2.55;;
46008;SDS011;39597;51.438;7.006;2022-09-27T03:45:48;6.85;;;2.53;;
46008;SDS011;39597;51.438;7.006;2022-09-27T03:48:15;7.45;;;2.75;;
46008;SDS011;39597;51.438;7.006;2022-09-27T03:50:40;7.68;;;3.30;;
46008;SDS011;39597;51.438;7.006;2022-09-27T03:53:06;13.40;;;4.53;;
46008;SDS011;39597;51.438;7.006;2022-09-27T03:55:31;9.57;;;4.05;;
46008;SDS011;39597;51.438;7.006;2022-09-27T03:57:56;9.63;;;4.60;;
46008;SDS011;39597;51.438;7.006;2022-09-27T04:00:22;10.52;;;4.35;;
46008;SDS011;39597;51.438;7.006;2022-09-27T04:02:48;11.18;;;4.75;;
46008;SDS011;39597;51.438;7.006;2022-09-27T04:05:14;13.20;;;5.40;;
46008;SDS011;39597;51.438;7.006;2022-09-27T04:07:44;11.48;;;5.30;;
46008;SDS011;39597;51.438;7.006;2022-09-27T04:10:10;12.63;;;4.82;;
46008;SDS011;39597;51.438;7.006;2022-09-27T04:12:37;10.55;;;4.95;;
46008;SDS011;39597;51.438;7.006;2022-09-27T04:15:04;9.75;;;4.57;;
46008;SDS011;39597;51.438;7.006;2022-09-27T04:17:31;12.98;;;5.20;;
46008;SDS011;39597;51.438;7.006;2022-09-27T04:19:59;11.43;;;4.35;;
46008;SDS011;39597;51.438;7.006;2022-09-27T04:22:27;9.43;;;4.00;;
46008;SDS011;39597;51.438;7.006;2022-09-27T04:24:52;9.45;;;4.53;;
46008;SDS011;39597;51.438;7.006;2022-09-27T04:27:18;8.40;;;3.97;;
46008;SDS011;39597;51.438;7.006;2022-09-27T04:29:43;9.60;;;4.43;;
46008;SDS011;39597;51.438;7.006;2022-09-27T04:32:11;7.70;;;3.72;;
46008;SDS011;39597;51.438;7.006;2022-09-27T04:34:36;8.35;;;3.53;;
46008;SDS011;39597;51.438;7.006;2022-09-27T04:37:21;15.30;;;4.35;;
46008;SDS011;39597;51.438;7.006;2022-09-27T04:39:46;14.80;;;3.50;;
46008;SDS011;39597;51.438;7.006;2022-09-27T04:42:14;7.70;;;3.83;;
46008;SDS011;39597;51.438;7.006;2022-09-27T04:44:40;5.93;;;2.95;;
46008;SDS011;39597;51.438;7.006;2022-09-27T04:47:07;8.02;;;3.53;;
46008;SDS011;39597;51.438;7.006;2022-09-27T04:49:32;8.38;;;3.53;;
46008;SDS011;39597;51.438;7.006;2022-09-27T04:51:58;8.98;;;3.63;;
46008;SDS011;39597;51.438;7.006;2022-09-27T04:54:24;9.03;;;4.27;;
46008;SDS011;39597;51.438;7.006;2022-09-27T04:56:49;7.80;;;3.45;;
46008;SDS011;39597;51.438;7.006;2022-09-27T04:59:14;7.30;;;3.13;;
46008;SDS011;39597;51.438;7.006;2022-09-27T05:01:40;7.40;;;3.00;;
46008;SDS011;39597;51.438;7.006;2022-09-27T05:04:05;8.57;;;3.13;;
46008;SDS011;39597;51.438;7.006;2022-09-27T05:06:31;7.80;;;3.10;;
46008;SDS011;39597;51.438;7.006;2022-09-27T05:08:56;8.23;;;2.88;;
46008;SDS011;39597;51.438;7.006;2022-09-27T05:11:22;6.68;;;2.95;;
46008;SDS011;39597;51.438;7.006;2022-09-27T05:16:15;8.35;;;3.30;;
46008;SDS011;39597;51.438;7.006;2022-09-27T05:18:41;7.68;;;2.00;;
46008;SDS011;39597;51.438;7.006;2022-09-27T05:21:07;6.03;;;1.73;;
46008;SDS011;39597;51.438;7.006;2022-09-27T05:23:32;4.78;;;1.83;;
46008;SDS011;39597;51.438;7.006;2022-09-27T05:26:05;3.33;;;1.13;;
46008;SDS011;39597;51.438;7.006;2022-09-27T05:28:31;3.30;;;1.38;;
46008;SDS011;39597;51.438;7.006;2022-09-27T05:30:59;3.58;;;1.20;;
46008;SDS011;39597;51.438;7.006;2022-09-27T05:33:25;4.38;;;1.25;;
46008;SDS011;39597;51.438;7.006;2022-09-27T05:35:58;6.97;;;2.10;;
46008;SDS011;39597;51.438;7.006;2022-09-27T05:40:49;2.90;;;0.88;;
46008;SDS011;39597;51.438;7.006;2022-09-27T05:43:18;7.50;;;1.45;;
46008;SDS011;39597;51.438;7.006;2022-09-27T05:45:45;4.45;;;0.98;;
46008;SDS011;39597;51.438;7.006;2022-09-27T05:48:11;2.63;;;1.20;;
46008;SDS011;39597;51.438;7.006;2022-09-27T05:50:41;3.25;;;1.20;;
46008;SDS011;39597;51.438;7.006;2022-09-27T05:53:07;8.55;;;1.70;;
46008;SDS011;39597;51.438;7.006;2022-09-27T05:55:33;2.78;;;1.00;;
46008;SDS011;39597;51.438;7.006;2022-09-27T05:58:00;4.63;;;1.27;;
46008;SDS011;39597;51.438;7.006;2022-09-27T06:00:27;5.40;;;1.20;;
46008;SDS011;39597;51.438;7.006;2022-09-27T06:02:54;5.57;;;1.83;;
46008;SDS011;39597;51.438;7.006;2022-09-27T06:05:21;3.22;;;1.30;;
46008;SDS011;39597;51.438;7.006;2022-09-27T06:07:47;2.67;;;0.88;;
46008;SDS011;39597;51.438;7.006;2022-09-27T06:10:14;3.15;;;1.20;;
46008;SDS011;39597;51.438;7.006;2022-09-27T06:12:40;3.33;;;0.98;;
46008;SDS011;39597;51.438;7.006;2022-09-27T06:15:06;3.65;;;1.10;;
46008;SDS011;39597;51.438;7.006;2022-09-27T06:17:35;4.85;;;1.52;;
46008;SDS011;39597;51.438;7.006;2022-09-27T06:20:01;4.57;;;1.20;;
46008;SDS011;39597;51.438;7.006;2022-09-27T06:22:28;4.22;;;1.13;;
46008;SDS011;39597;51.438;7.006;2022-09-27T06:24:53;3.55;;;1.33;;
46008;SDS011;39597;51.438;7.006;2022-09-27T06:27:24;5.53;;;1.10;;
46008;SDS011;39597;51.438;7.006;2022-09-27T06:32:15;2.85;;;1.00;;
46008;SDS011;39597;51.438;7.006;2022-09-27T06:34:41;3.77;;;1.10;;
46008;SDS011;39597;51.438;7.006;2022-09-27T06:37:06;4.87;;;0.97;;
46008;SDS011;39597;51.438;7.006;2022-09-27T06:39:33;8.20;;;1.70;;
46008;SDS011;39597;51.438;7.006;2022-09-27T06:41:59;3.38;;;1.17;;
46008;SDS011;39597;51.438;7.006;2022-09-27T06:44:24;6.75;;;1.80;;
46008;SDS011;39597;51.438;7.006;2022-09-27T06:46:56;6.32;;;1.63;;
46008;SDS011;39597;51.438;7.006;2022-09-27T06:49:23;6.30;;;1.83;;
46008;SDS011;39597;51.438;7.006;2022-09-27T06:51:49;4.05;;;1.95;;
46008;SDS011;39597;51.438;7.006;2022-09-27T06:54:17;7.10;;;1.77;;
46008;SDS011;39597;51.438;7.006;2022-09-27T06:56:43;4.32;;;1.40;;
46008;SDS011;39597;51.438;7.006;2022-09-27T06:59:10;5.43;;;1.55;;
46008;SDS011;39597;51.438;7.006;2022-09-27T07:01:57;4.03;;;1.67;;
46008;SDS011;39597;51.438;7.006;2022-09-27T07:04:27;4.78;;;1.30;;
46008;SDS011;39597;51.438;7.006;2022-09-27T07:06:52;2.65;;;1.02;;
46008;SDS011;39597;51.438;7.006;2022-09-27T07:09:17;2.93;;;1.17;;
46008;SDS011;39597;51.438;7.006;2022-09-27T07:11:43;4.88;;;2.05;;
46008;SDS011;39597;51.438;7.006;2022-09-27T07:14:09;5.25;;;1.67;;
46008;SDS011;39597;51.438;7.006;2022-09-27T07:19:02;4.93;;;1.27;;
46008;SDS011;39597;51.438;7.006;2022-09-27T07:21:28;3.75;;;1.23;;
46008;SDS011;39597;51.438;7.006;2022-09-27T07:23:53;21.15;;;4.13;;
46008;SDS011;39597;51.438;7.006;2022-09-27T07:26:40;8.48;;;1.52;;
46008;SDS011;39597;51.438;7.006;2022-09-27T07:29:05;5.95;;;1.08;;
46008;SDS011;39597;51.438;7.006;2022-09-27T07:34:18;5.32;;;1.13;;
46008;SDS011;39597;51.438;7.006;2022-09-27T07:37:07;2.65;;;1.13;;
46008;SDS011;39597;51.438;7.006;2022-09-27T07:39:33;9.43;;;0.90;;
46008;SDS011;39597;51.438;7.006;2022-09-27T07:45:24;3.13;;;0.90;;
46008;SDS011;39597;51.438;7.006;2022-09-27T07:47:51;4.85;;;1.38;;
46008;SDS011;39597;51.438;7.006;2022-09-27T07:50:17;6.65;;;1.63;;
46008;SDS011;39597;51.438;7.006;2022-09-27T07:52:49;4.82;;;1.80;;
46008;SDS011;39597;51.438;7.006;2022-09-27T07:55:17;4.00;;;1.63;;
46008;SDS011;39597;51.438;7.006;2022-09-27T07:57:44;4.90;;;1.30;;
46008;SDS011;39597;51.438;7.006;2022-09-27T08:00:26;5.57;;;1.42;;
46008;SDS011;39597;51.438;7.006;2022-09-27T08:06:24;4.32;;;1.15;;
46008;SDS011;39597;51.438;7.006;2022-09-27T08:08:57;9.82;;;3.35;;
46008;SDS011;39597;51.438;7.006;2022-09-27T08:11:23;4.00;;;1.25;;
46008;SDS011;39597;51.438;7.006;2022-09-27T08:13:51;2.95;;;1.00;;
46008;SDS011;39597;51.438;7.006;2022-09-27T08:16:17;9.15;;;1.33;;
46008;SDS011;39597;51.438;7.006;2022-09-27T08:18:42;4.07;;;1.30;;
46008;SDS011;39597;51.438;7.006;2022-09-27T08:21:08;3.33;;;0.98;;
46008;SDS011;39597;51.438;7.006;2022-09-27T08:23:33;3.03;;;1.23;;
46008;SDS011;39597;51.438;7.006;2022-09-27T08:26:00;7.93;;;1.80;;
46008;SDS011;39597;51.438;7.006;2022-09-27T08:28:27;3.15;;;1.08;;
46008;SDS011;39597;51.438;7.006;2022-09-27T08:30:55;13.57;;;1.92;;
46008;SDS011;39597;51.438;7.006;2022-09-27T08:33:23;3.90;;;1.50;;
46008;SDS011;39597;51.438;7.006;2022-09-27T08:35:50;3.47;;;1.08;;
46008;SDS011;39597;51.438;7.006;2022-09-27T08:38:16;4.85;;;1.30;;
46008;SDS011;39597;51.438;7.006;2022-09-27T08:48:38;4.05;;;1.20;;
46008;SDS011;39597;51.438;7.006;2022-09-27T08:51:05;2.03;;;0.70;;
46008;SDS011;39597;51.438;7.006;2022-09-27T08:53:42;3.63;;;0.80;;
46008;SDS011;39597;51.438;7.006;2022-09-27T08:56:10;3.92;;;1.15;;
46008;SDS011;39597;51.438;7.006;2022-09-27T08:58:48;2.45;;;0.90;;
46008;SDS011;39597;51.438;7.006;2022-09-27T09:01:23;2.15;;;0.85;;
46008;SDS011;39597;51.438;7.006;2022-09-27T09:03:54;2.47;;;1.15;;
46008;SDS011;39597;51.438;7.006;2022-09-27T09:06:29;3.88;;;0.93;;
46008;SDS011;39597;51.438;7.006;2022-09-27T09:17:37;4.63;;;1.45;;
46008;SDS011;39597;51.438;7.006;2022-09-27T09:23:36;3.88;;;1.75;;
46008;SDS011;39597;51.438;7.006;2022-09-27T09:26:41;4.07;;;1.65;;
46008;SDS011;39597;51.438;7.006;2022-09-27T09:35:25;3.40;;;1.33;;
46008;SDS011;39597;51.438;7.006;2022-09-27T09:38:01;4.50;;;1.38;;
46008;SDS011;39597;51.438;7.006;2022-09-27T09:40:40;4.43;;;1.75;;
46008;SDS011;39597;51.438;7.006;2022-09-27T09:43:14;3.92;;;1.10;;
46008;SDS011;39597;51.438;7.006;2022-09-27T09:45:49;3.45;;;1.20;;
46008;SDS011;39597;51.438;7.006;2022-09-27T09:48:23;2.40;;;0.90;;
46008;SDS011;39597;51.438;7.006;2022-09-27T09:51:04;3.80;;;1.30;;
46008;SDS011;39597;51.438;7.006;2022-09-27T09:56:27;3.10;;;1.00;;
46008;SDS011;39597;51.438;7.006;2022-09-27T10:01:44;3.85;;;1.52;;
46008;SDS011;39597;51.438;7.006;2022-09-27T10:04:19;7.57;;;2.10;;
46008;SDS011;39597;51.438;7.006;2022-09-27T10:06:48;5.93;;;1.85;;
46008;SDS011;39597;51.438;7.006;2022-09-27T10:09:23;3.70;;;1.70;;
46008;SDS011;39597;51.438;7.006;2022-09-27T10:11:51;4.88;;;1.70;;
46008;SDS011;39597;51.438;7.006;2022-09-27T10:14:18;4.85;;;1.92;;
46008;SDS011;39597;51.438;7.006;2022-09-27T10:16:46;6.32;;;2.30;;
46008;SDS011;39597;51.438;7.006;2022-09-27T10:19:15;4.03;;;1.92;;
46008;SDS011;39597;51.438;7.006;2022-09-27T10:21:45;4.65;;;1.70;;
46008;SDS011;39597;51.438;7.006;2022-09-27T10:24:13;7.10;;;1.63;;
46008;SDS011;39597;51.438;7.006;2022-09-27T10:26:41;5.45;;;2.50;;
46008;SDS011;39597;51.438;7.006;2022-09-27T10:29:22;5.68;;;2.10;;
46008;SDS011;39597;51.438;7.006;2022-09-27T10:31:59;5.00;;;2.55;;
46008;SDS011;39597;51.438;7.006;2022-09-27T10:34:38;5.28;;;2.17;;
46008;SDS011;39597;51.438;7.006;2022-09-27T10:39:37;7.72;;;2.90;;
46008;SDS011;39597;51.438;7.006;2022-09-27T10:45:21;4.80;;;2.17;;
46008;SDS011;39597;51.438;7.006;2022-09-27T10:47:54;4.65;;;2.15;;
46008;SDS011;39597;51.438;7.006;2022-09-27T10:50:28;5.85;;;2.20;;
46008;SDS011;39597;51.438;7.006;2022-09-27T10:53:01;4.65;;;2.10;;
46008;SDS011;39597;51.438;7.006;2022-09-27T10:55:35;4.20;;;2.00;;
46008;SDS011;39597;51.438;7.006;2022-09-27T10:58:02;3.33;;;1.75;;
46008;SDS011;39597;51.438;7.006;2022-09-27T11:00:29;7.28;;;2.20;;
46008;SDS011;39597;51.438;7.006;2022-09-27T11:08:49;3.58;;;1.67;;
46008;SDS011;39597;51.438;7.006;2022-09-27T11:11:24;3.40;;;1.50;;
46008;SDS011;39597;51.438;7.006;2022-09-27T11:17:28;2.85;;;1.00;;
46008;SDS011;39597;51.438;7.006;2022-09-27T11:22:17;3.38;;;1.45;;
46008;SDS011;39597;51.438;7.006;2022-09-27T11:27:52;6.40;;;1.90;;
46008;SDS011;39597;51.438;7.006;2022-09-27T11:39:22;3.95;;;1.92;;
46008;SDS011;39597;51.438;7.006;2022-09-27T11:45:34;13.02;;;2.28;;
46008;SDS011;39597;51.438;7.006;2022-09-27T11:48:26;17.88;;;3.20;;
46008;SDS011;39597;51.438;7.006;2022-09-27T11:51:01;6.05;;;1.83;;
46008;SDS011;39597;51.438;7.006;2022-09-27T12:02:25;6.10;;;2.05;;
46008;SDS011;39597;51.438;7.006;2022-09-27T12:05:15;4.95;;;1.30;;
46008;SDS011;39597;51.438;7.006;2022-09-27T12:10:54;3.10;;;1.20;;
46008;SDS011;39597;51.438;7.006;2022-09-27T12:13:30;15.85;;;2.55;;
46008;SDS011;39597;51.438;7.006;2022-09-27T12:16:01;3.63;;;1.50;;
46008;SDS011;39597;51.438;7.006;2022-09-27T12:18:29;6.97;;;1.73;;
46008;SDS011;39597;51.438;7.006;2022-09-27T12:21:02;5.50;;;1.80;;
46008;SDS011;39597;51.438;7.006;2022-09-27T12:23:35;3.90;;;1.40;;
46008;SDS011;39597;51.438;7.006;2022-09-27T12:26:11;4.35;;;1.85;;
46008;SDS011;39597;51.438;7.006;2022-09-27T12:29:41;5.60;;;1.90;;
46008;SDS011;39597;51.438;7.006;2022-09-27T12:37:18;5.15;;;1.30;;
46008;SDS011;39597;51.438;7.006;2022-09-27T12:39:59;3.28;;;1.30;;
46008;SDS011;39597;51.438;7.006;2022-09-27T12:45:13;7.03;;;2.08;;
46008;SDS011;39597;51.438;7.006;2022-09-27T12:51:06;4.18;;;1.95;;
46008;SDS011;39597;51.438;7.006;2022-09-27T12:53:57;5.38;;;2.05;;
46008;SDS011;39597;51.438;7.006;2022-09-27T12:56:56;4.82;;;1.90;;
46008;SDS011;39597;51.438;7.006;2022-09-27T13:02:30;4.60;;;2.00;;
46008;SDS011;39597;51.438;7.006;2022-09-27T13:10:58;6.55;;;1.98;;
46008;SDS011;39597;51.438;7.006;2022-09-27T13:13:40;4.85;;;1.60;;
46008;SDS011;39597;51.438;7.006;2022-09-27T13:16:06;4.60;;;1.50;;
46008;SDS011;39597;51.438;7.006;2022-09-27T13:21:05;3.22;;;1.20;;
46008;SDS011;39597;51.438;7.006;2022-09-27T13:28:59;3.15;;;1.38;;
46008;SDS011;39597;51.438;7.006;2022-09-27T13:49:11;3.53;;;1.50;;
46008;SDS011;39597;51.438;7.006;2022-09-27T13:53:42;4.97;;;1.30;;
46008;SDS011;39597;51.438;7.006;2022-09-27T13:59:15;2.67;;;1.15;;
46008;SDS011;39597;51.438;7.006;2022-09-27T14:01:54;3.95;;;1.00;;
46008;SDS011;39597;51.438;7.006;2022-09-27T14:04:27;2.83;;;0.90;;
46008;SDS011;39597;51.438;7.006;2022-09-27T14:06:59;2.65;;;0.90;;
46008;SDS011;39597;51.438;7.006;2022-09-27T14:09:28;3.08;;;1.10;;
46008;SDS011;39597;51.438;7.006;2022-09-27T14:11:57;3.30;;;1.27;;
46008;SDS011;39597;51.438;7.006;2022-09-27T14:14:29;2.63;;;1.10;;
46008;SDS011;39597;51.438;7.006;2022-09-27T14:17:00;3.00;;;1.10;;
46008;SDS011;39597;51.438;7.006;2022-09-27T14:19:30;3.88;;;0.90;;
46008;SDS011;39597;51.438;7.006;2022-09-27T14:21:55;2.95;;;1.25;;
46008;SDS011;39597;51.438;7.006;2022-09-27T14:24:23;2.20;;;0.90;;
46008;SDS011;39597;51.438;7.006;2022-09-27T14:29:42;2.15;;;0.70;;
46008;SDS011;39597;51.438;7.006;2022-09-27T14:32:19;1.87;;;0.50;;
46008;SDS011;39597;51.438;7.006;2022-09-27T14:35:03;1.98;;;0.75;;
46008;SDS011;39597;51.438;7.006;2022-09-27T14:38:08;0.93;;;0.40;;
46008;SDS011;39597;51.438;7.006;2022-09-27T14:40:42;1.50;;;0.55;;
46008;SDS011;39597;51.438;7.006;2022-09-27T14:43:18;1.60;;;0.60;;
46008;SDS011;39597;51.438;7.006;2022-09-27T14:45:49;1.85;;;0.60;;
46008;SDS011;39597;51.438;7.006;2022-09-27T14:48:21;3.33;;;0.73;;
46008;SDS011;39597;51.438;7.006;2022-09-27T14:51:37;1.88;;;0.70;;
46008;SDS011;39597;51.438;7.006;2022-09-27T14:53:43;1.02;;;0.50;;
46008;SDS011;39597;51.438;7.006;2022-09-27T14:56:14;2.05;;;0.60;;
46008;SDS011;39597;51.438;7.006;2022-09-27T14:58:43;4.32;;;0.70;;
46008;SDS011;39597;51.438;7.006;2022-09-27T15:01:16;2.40;;;0.82;;
46008;SDS011;39597;51.438;7.006;2022-09-27T15:03:44;4.25;;;0.68;;
46008;SDS011;39597;51.438;7.006;2022-09-27T15:06:10;1.45;;;0.60;;
46008;SDS011;39597;51.438;7.006;2022-09-27T15:08:36;1.13;;;0.50;;
46008;SDS011;39597;51.438;7.006;2022-09-27T15:11:03;1.85;;;0.60;;
46008;SDS011;39597;51.438;7.006;2022-09-27T15:13:31;1.90;;;0.73;;
46008;SDS011;39597;51.438;7.006;2022-09-27T15:16:00;2.35;;;0.63;;
46008;SDS011;39597;51.438;7.006;2022-09-27T15:21:01;1.58;;;0.70;;
46008;SDS011;39597;51.438;7.006;2022-09-27T15:23:29;1.95;;;0.60;;
46008;SDS011;39597;51.438;7.006;2022-09-27T15:26:18;1.67;;;0.60;;
46008;SDS011;39597;51.438;7.006;2022-09-27T15:28:54;2.22;;;0.75;;
46008;SDS011;39597;51.438;7.006;2022-09-27T15:31:31;3.28;;;0.80;;
46008;SDS011;39597;51.438;7.006;2022-09-27T15:34:01;1.17;;;0.73;;
46008;SDS011;39597;51.438;7.006;2022-09-27T15:36:50;2.42;;;0.70;;
46008;SDS011;39597;51.438;7.006;2022-09-27T15:42:05;2.92;;;0.50;;
46008;SDS011;39597;51.438;7.006;2022-09-27T15:44:44;1.23;;;0.65;;
46008;SDS011;39597;51.438;7.006;2022-09-27T15:52:50;1.35;;;0.50;;
46008;SDS011;39597;51.438;7.006;2022-09-27T15:55:18;2.38;;;0.50;;
46008;SDS011;39597;51.438;7.006;2022-09-27T15:57:47;1.75;;;0.50;;
46008;SDS011;39597;51.438;7.006;2022-09-27T16:00:16;1.17;;;0.70;;
46008;SDS011;39597;51.438;7.006;2022-09-27T16:02:43;1.20;;;0.47;;
46008;SDS011;39597;51.438;7.006;2022-09-27T16:05:09;2.13;;;0.50;;
46008;SDS011;39597;51.438;7.006;2022-09-27T16:07:38;3.90;;;1.10;;
46008;SDS011;39597;51.438;7.006;2022-09-27T16:10:13;1.98;;;0.60;;
46008;SDS011;39597;51.438;7.006;2022-09-27T16:12:42;1.98;;;0.65;;
46008;SDS011;39597;51.438;7.006;2022-09-27T16:15:15;2.53;;;1.27;;
46008;SDS011;39597;51.438;7.006;2022-09-27T16:17:46;2.78;;;0.80;;
46008;SDS011;39597;51.438;7.006;2022-09-27T16:20:23;3.83;;;1.15;;
46008;SDS011;39597;51.438;7.006;2022-09-27T16:22:54;2.42;;;1.17;;
46008;SDS011;39597;51.438;7.006;2022-09-27T16:25:24;4.50;;;1.75;;
46008;SDS011;39597;51.438;7.006;2022-09-27T16:28:04;2.15;;;0.98;;
46008;SDS011;39597;51.438;7.006;2022-09-27T16:30:40;4.43;;;1.30;;
46008;SDS011;39597;51.438;7.006;2022-09-27T16:33:07;3.60;;;1.30;;
46008;SDS011;39597;51.438;7.006;2022-09-27T16:35:37;2.60;;;1.10;;
46008;SDS011;39597;51.438;7.006;2022-09-27T16:38:06;3.95;;;1.00;;
46008;SDS011;39597;51.438;7.006;2022-09-27T16:40:38;3.58;;;1.05;;
46008;SDS011;39597;51.438;7.006;2022-09-27T16:43:03;3.70;;;1.50;;
46008;SDS011;39597;51.438;7.006;2022-09-27T16:45:31;2.58;;;1.02;;
46008;SDS011;39597;51.438;7.006;2022-09-27T16:48:04;2.05;;;0.80;;
46008;SDS011;39597;51.438;7.006;2022-09-27T16:50:29;3.77;;;1.20;;
46008;SDS011;39597;51.438;7.006;2022-09-27T16:53:13;4.22;;;1.25;;
46008;SDS011;39597;51.438;7.006;2022-09-27T16:55:39;2.35;;;1.25;;
46008;SDS011;39597;51.438;7.006;2022-09-27T17:00:37;4.13;;;1.35;;
46008;SDS011;39597;51.438;7.006;2022-09-27T17:03:05;2.90;;;0.98;;
46008;SDS011;39597;51.438;7.006;2022-09-27T17:05:32;2.72;;;0.80;;
46008;SDS011;39597;51.438;7.006;2022-09-27T17:07:58;2.20;;;0.80;;
46008;SDS011;39597;51.438;7.006;2022-09-27T17:10:42;1.53;;;0.60;;
46008;SDS011;39597;51.438;7.006;2022-09-27T17:13:26;1.55;;;0.65;;
46008;SDS011;39597;51.438;7.006;2022-09-27T17:16:03;1.80;;;0.70;;
46008;SDS011;39597;51.438;7.006;2022-09-27T17:18:37;1.83;;;0.60;;
46008;SDS011;39597;51.438;7.006;2022-09-27T17:21:15;1.67;;;0.90;;
46008;SDS011;39597;51.438;7.006;2022-09-27T17:24:22;1.13;;;0.60;;
46008;SDS011;39597;51.438;7.006;2022-09-27T17:26:48;1.85;;;0.80;;
46008;SDS011;39597;51.438;7.006;2022-09-27T17:29:13;1.83;;;0.70;;
46008;SDS011;39597;51.438;7.006;2022-09-27T17:31:40;2.60;;;0.60;;
46008;SDS011;39597;51.438;7.006;2022-09-27T17:34:07;3.33;;;1.15;;
46008;SDS011;39597;51.438;7.006;2022-09-27T17:36:36;3.65;;;0.75;;
46008;SDS011;39597;51.438;7.006;2022-09-27T17:39:03;2.40;;;0.90;;
46008;SDS011;39597;51.438;7.006;2022-09-27T17:41:29;2.08;;;0.82;;
46008;SDS011;39597;51.438;7.006;2022-09-27T17:44:04;2.13;;;0.75;;
46008;SDS011;39597;51.438;7.006;2022-09-27T17:46:30;2.97;;;0.97;;
46008;SDS011;39597;51.438;7.006;2022-09-27T17:48:58;3.05;;;1.08;;
46008;SDS011;39597;51.438;7.006;2022-09-27T17:51:47;2.55;;;1.13;;
46008;SDS011;39597;51.438;7.006;2022-09-27T17:54:25;2.33;;;0.90;;
46008;SDS011;39597;51.438;7.006;2022-09-27T17:56:58;3.08;;;0.93;;
46008;SDS011;39597;51.438;7.006;2022-09-27T17:59:39;2.83;;;1.35;;
46008;SDS011;39597;51.438;7.006;2022-09-27T18:02:07;2.63;;;0.80;;
46008;SDS011;39597;51.438;7.006;2022-09-27T18:04:37;5.15;;;1.48;;
46008;SDS011;39597;51.438;7.006;2022-09-27T18:07:14;3.83;;;1.40;;
46008;SDS011;39597;51.438;7.006;2022-09-27T18:09:42;4.38;;;1.15;;
46008;SDS011;39597;51.438;7.006;2022-09-27T18:12:07;3.50;;;1.15;;
46008;SDS011;39597;51.438;7.006;2022-09-27T18:14:37;6.47;;;1.08;;
46008;SDS011;39597;51.438;7.006;2022-09-27T18:17:44;3.47;;;1.15;;
46008;SDS011;39597;51.438;7.006;2022-09-27T18:20:10;4.43;;;1.40;;
46008;SDS011;39597;51.438;7.006;2022-09-27T18:22:37;3.07;;;1.10;;
46008;SDS011;39597;51.438;7.006;2022-09-27T18:25:07;2.75;;;0.90;;
46008;SDS011;39597;51.438;7.006;2022-09-27T18:27:35;3.95;;;1.13;;